createdAt,value
2023-01-13T00:01:55.795Z,73.60
2023-01-13T00:04:26.843Z,73.24
2023-01-13T00:06:57.442Z,73.97
2023-01-13T00:09:27.933Z,74.10
2023-01-13T00:11:58.549Z,73.95
2023-01-13T00:14:31.225Z,73.54
2023-01-13T00:17:01.846Z,74.16
2023-01-13T00:19:32.624Z,73.98
2023-01-13T00:22:03.199Z,74.08
2023-01-13T00:24:33.897Z,74.67
2023-01-13T00:27:04.581Z,74.82
2023-01-13T00:29:35.906Z,74.51
2023-01-13T00:32:06.646Z,74.53
2023-01-13T00:34:37.241Z,74.16
2023-01-13T00:37:07.871Z,74.48
2023-01-13T00:39:38.360Z,74.09
2023-01-13T00:42:27.458Z,74.53
2023-01-13T00:44:57.989Z,74.50
2023-01-13T00:47:28.543Z,74.19
2023-01-13T00:49:59.440Z,74.36
2023-01-13T00:52:30.573Z,73.86
2023-01-13T00:55:02.321Z,74.24
2023-01-13T00:57:36.234Z,73.95
2023-01-13T01:00:07.239Z,74.81
2023-01-13T01:02:37.845Z,74.24
2023-01-13T01:05:08.895Z,74.31
2023-01-13T01:07:39.814Z,74.51
2023-01-13T01:10:11.140Z,73.93
2023-01-13T01:12:41.872Z,74.13
2023-01-13T01:15:13.166Z,73.72
2023-01-13T01:17:43.861Z,73.61
2023-01-13T01:20:15.246Z,73.17
2023-01-13T01:22:46.073Z,73.65
2023-01-13T01:25:16.926Z,73.45
2023-01-13T01:27:47.700Z,72.97
2023-01-13T01:30:18.995Z,73.04
2023-01-13T01:32:49.822Z,73.15
2023-01-13T01:35:20.579Z,73.25
2023-01-13T01:37:51.283Z,73.22
2023-01-13T01:40:21.913Z,73.13
2023-01-13T01:43:10.505Z,73.08
2023-01-13T01:45:41.058Z,73.10
2023-01-13T01:48:12.539Z,72.72
2023-01-13T01:50:43.503Z,72.96
2023-01-13T01:53:17.149Z,72.99
2023-01-13T01:55:47.866Z,73.07
2023-01-13T01:58:23.850Z,73.28
2023-01-13T02:00:54.476Z,72.93
2023-01-13T02:03:25.719Z,73.21
2023-01-13T02:05:56.710Z,73.25
2023-01-13T02:08:27.191Z,73.41
2023-01-13T02:10:57.837Z,72.75
2023-01-13T02:13:28.869Z,73.12
2023-01-13T02:16:12.766Z,72.65
2023-01-13T02:18:56.166Z,72.61
2023-01-13T02:21:42.242Z,72.88
2023-01-13T02:24:53.710Z,73.00
2023-01-13T02:27:47.235Z,72.86
2023-01-13T02:30:44.784Z,72.97
2023-01-13T02:33:15.372Z,72.59
2023-01-13T02:35:54.492Z,72.78
2023-01-13T02:38:29.644Z,72.81
2023-01-13T02:41:22.744Z,72.66
2023-01-13T02:44:09.419Z,72.26
2023-01-13T02:46:50.941Z,72.33
2023-01-13T02:49:26.980Z,72.62
2023-01-13T02:52:00.956Z,71.98
2023-01-13T02:54:32.357Z,72.33
2023-01-13T02:57:03.192Z,71.91
2023-01-13T02:59:35.983Z,72.05
2023-01-13T03:02:08.369Z,72.04
2023-01-13T03:04:52.567Z,72.03
2023-01-13T03:07:26.231Z,71.47
2023-01-13T03:10:06.924Z,71.52
2023-01-13T03:12:46.460Z,71.51
2023-01-13T03:15:24.307Z,71.25
2023-01-13T03:18:09.069Z,71.66
2023-01-13T03:20:45.623Z,71.56
2023-01-13T03:23:29.989Z,71.14
2023-01-13T03:26:17.315Z,71.24
2023-01-13T03:28:51.162Z,71.03
2023-01-13T03:31:26.232Z,70.47
2023-01-13T03:33:59.579Z,70.83
2023-01-13T03:36:31.822Z,70.28
2023-01-13T03:39:05.912Z,70.69
2023-01-13T03:41:58.728Z,69.99
2023-01-13T03:44:35.578Z,69.90
2023-01-13T03:47:09.618Z,70.09
2023-01-13T03:49:46.020Z,69.88
2023-01-13T03:52:21.438Z,69.90
2023-01-13T03:55:05.045Z,69.40
2023-01-13T03:57:38.406Z,69.32
2023-01-13T04:00:11.489Z,68.92
2023-01-13T04:02:41.691Z,69.48
2023-01-13T04:05:12.796Z,69.31
2023-01-13T04:07:49.159Z,69.06
2023-01-13T04:10:29.581Z,69.11
2023-01-13T04:13:19.815Z,69.78
2023-01-13T04:15:51.031Z,70.34
2023-01-13T04:18:32.099Z,70.36
2023-01-13T04:21:03.714Z,70.08
2023-01-13T04:23:34.649Z,70.59
2023-01-13T04:26:05.569Z,70.55
2023-01-13T04:28:36.480Z,70.62
2023-01-13T04:31:07.274Z,70.71
2023-01-13T04:33:38.001Z,71.12
2023-01-13T04:36:08.945Z,70.53
2023-01-13T04:38:39.757Z,71.10
2023-01-13T04:41:10.915Z,71.24
2023-01-13T04:43:41.512Z,71.69
2023-01-13T04:46:12.352Z,71.55
2023-01-13T04:48:42.905Z,71.40
2023-01-13T04:51:13.616Z,72.10
2023-01-13T04:53:44.497Z,71.76
2023-01-13T04:56:15.138Z,71.91
2023-01-13T04:58:45.833Z,72.31
2023-01-13T05:01:17.297Z,72.10
2023-01-13T05:03:47.854Z,72.36
2023-01-13T05:06:18.641Z,72.14
2023-01-13T05:08:49.520Z,72.26
2023-01-13T05:11:38.096Z,72.10
2023-01-13T05:14:26.568Z,72.04
2023-01-13T05:17:04.694Z,72.53
2023-01-13T05:19:36.471Z,72.83
2023-01-13T05:22:25.309Z,71.97
2023-01-13T05:25:13.987Z,72.41
2023-01-13T05:27:44.798Z,71.92
2023-01-13T05:30:16.027Z,72.36
2023-01-13T05:32:46.861Z,71.98
2023-01-13T05:35:18.151Z,72.39
2023-01-13T05:37:49.175Z,71.89
2023-01-13T05:40:39.084Z,71.51
2023-01-13T05:43:23.259Z,71.80
2023-01-13T05:46:01.295Z,71.33
2023-01-13T05:48:33.516Z,70.92
2023-01-13T05:51:05.619Z,71.12
2023-01-13T05:53:37.104Z,70.20
2023-01-13T05:56:08.584Z,70.27
2023-01-13T05:58:39.329Z,70.10
2023-01-13T06:01:10.651Z,70.31
2023-01-13T06:03:41.422Z,69.64
2023-01-13T06:06:11.944Z,69.76
2023-01-13T06:08:42.558Z,69.39
2023-01-13T06:11:13.179Z,69.58
2023-01-13T06:13:43.836Z,69.04
2023-01-13T06:16:14.403Z,68.98
2023-01-13T06:18:45.025Z,68.77
2023-01-13T06:21:15.596Z,68.94
2023-01-13T06:23:46.269Z,68.86
2023-01-13T06:26:19.559Z,68.71
2023-01-13T06:28:51.660Z,68.11
2023-01-13T06:31:22.630Z,68.01
2023-01-13T06:33:56.116Z,67.78
2023-01-13T06:36:32.963Z,67.75
2023-01-13T06:39:04.493Z,67.47
2023-01-13T06:41:53.675Z,67.25
2023-01-13T06:44:25.935Z,66.30
2023-01-13T06:46:57.252Z,66.51
2023-01-13T06:49:27.950Z,66.22
2023-01-13T06:51:58.583Z,65.98
2023-01-13T06:54:29.191Z,66.30
2023-01-13T06:57:00.561Z,66.22
2023-01-13T06:59:31.666Z,65.97
2023-01-13T07:02:02.389Z,65.96
2023-01-13T07:04:34.271Z,65.72
2023-01-13T07:07:04.832Z,65.55
2023-01-13T07:09:35.885Z,65.42
2023-01-13T07:12:06.875Z,65.43
2023-01-13T07:14:55.669Z,65.12
2023-01-13T07:17:26.653Z,64.98
2023-01-13T07:19:57.418Z,64.74
2023-01-13T07:22:28.082Z,65.09
2023-01-13T07:24:59.525Z,64.79
2023-01-13T07:27:30.109Z,64.33
2023-01-13T07:30:00.827Z,64.55
2023-01-13T07:32:33.555Z,64.20
2023-01-13T07:35:06.913Z,64.43
2023-01-13T07:37:38.544Z,64.22
2023-01-13T07:40:09.517Z,64.38
2023-01-13T07:42:58.700Z,64.56
2023-01-13T07:45:29.531Z,63.66
2023-01-13T07:48:00.073Z,63.46
2023-01-13T07:50:30.689Z,63.29
2023-01-13T07:53:01.236Z,63.37
2023-01-13T07:55:31.991Z,62.89
2023-01-13T07:58:02.565Z,62.69
2023-01-13T08:00:33.206Z,63.08
2023-01-13T08:03:03.948Z,63.56
2023-01-13T08:05:36.371Z,63.01
2023-01-13T08:08:06.991Z,62.73
2023-01-13T08:10:39.057Z,61.59
2023-01-13T08:13:19.697Z,60.97
2023-01-13T08:15:54.662Z,61.11
2023-01-13T08:18:25.156Z,61.56
2023-01-13T08:20:56.076Z,61.99
2023-01-13T08:23:26.736Z,62.14
2023-01-13T08:26:01.395Z,62.07
2023-01-13T08:28:32.957Z,62.40
2023-01-13T08:31:07.807Z,61.46
2023-01-13T08:33:39.293Z,61.92
2023-01-13T08:36:11.080Z,62.04
2023-01-13T08:38:42.334Z,61.22
2023-01-13T08:41:14.405Z,61.07
2023-01-13T08:43:45.010Z,61.13
2023-01-13T08:46:15.833Z,60.59
2023-01-13T08:48:46.398Z,60.61
2023-01-13T08:51:17.303Z,58.48
2023-01-13T08:53:47.838Z,60.01
2023-01-13T08:56:18.705Z,60.06
2023-01-13T08:58:49.539Z,61.00
2023-01-13T09:01:23.281Z,60.71
2023-01-13T09:03:54.122Z,60.55
2023-01-13T09:06:24.794Z,61.08
2023-01-13T09:08:56.765Z,59.73
2023-01-13T09:11:51.111Z,60.30
2023-01-13T09:14:25.356Z,60.50
2023-01-13T09:16:56.295Z,59.33
2023-01-13T09:19:27.188Z,59.46
2023-01-13T09:21:58.882Z,60.04
2023-01-13T09:24:29.719Z,59.78
2023-01-13T09:27:00.567Z,58.48
2023-01-13T09:29:31.232Z,58.44
2023-01-13T09:32:02.300Z,58.58
2023-01-13T09:34:50.784Z,58.54
2023-01-13T09:37:21.464Z,57.82
2023-01-13T09:39:52.031Z,58.85
2023-01-13T09:42:44.802Z,58.99
2023-01-13T09:45:27.722Z,58.52
2023-01-13T09:48:04.402Z,59.02
2023-01-13T09:50:41.346Z,59.46
2023-01-13T09:53:20.358Z,58.81
2023-01-13T09:55:51.105Z,58.28
2023-01-13T09:58:22.006Z,59.21
2023-01-13T10:00:52.561Z,59.24
2023-01-13T10:03:33.267Z,59.16
2023-01-13T10:06:15.641Z,58.03
2023-01-13T10:08:47.402Z,58.29
2023-01-13T10:11:40.140Z,58.71
2023-01-13T10:14:14.481Z,58.56
2023-01-13T10:16:48.226Z,59.59
2023-01-13T10:19:20.893Z,59.52
2023-01-13T10:22:03.236Z,59.32
2023-01-13T10:24:42.650Z,59.08
2023-01-13T10:27:33.170Z,59.48
2023-01-13T10:30:22.355Z,58.99
2023-01-13T10:33:22.241Z,59.65
2023-01-13T10:35:52.870Z,59.77
2023-01-13T10:38:25.671Z,59.73
2023-01-13T10:41:06.887Z,60.45
2023-01-13T10:43:37.948Z,61.32
2023-01-13T10:46:17.613Z,62.29
2023-01-13T10:48:55.291Z,62.60
2023-01-13T10:51:28.451Z,62.87
2023-01-13T10:54:16.097Z,63.44
2023-01-13T10:56:47.565Z,63.91
2023-01-13T10:59:18.176Z,63.93
2023-01-13T11:02:00.897Z,64.34
2023-01-13T11:05:02.011Z,65.27
2023-01-13T11:07:36.384Z,65.66
2023-01-13T11:10:19.451Z,66.20
2023-01-13T11:12:59.676Z,65.72
2023-01-13T11:15:40.199Z,66.13
2023-01-13T11:18:30.896Z,65.94
2023-01-13T11:21:02.298Z,67.00
2023-01-13T11:23:46.431Z,66.95
2023-01-13T11:26:20.619Z,65.80
2023-01-13T11:28:55.072Z,65.61
2023-01-13T11:31:32.360Z,65.03
2023-01-13T11:34:26.166Z,65.31
2023-01-13T11:36:58.808Z,64.96
2023-01-13T11:39:46.965Z,65.16
2023-01-13T11:42:37.569Z,65.55
2023-01-13T11:45:28.677Z,65.37
2023-01-13T11:48:00.395Z,65.38
2023-01-13T11:50:35.662Z,65.56
2023-01-13T11:53:17.791Z,65.81
2023-01-13T11:55:54.467Z,65.68
2023-01-13T11:58:29.004Z,65.98
2023-01-13T12:01:23.163Z,65.57
2023-01-13T12:04:08.484Z,65.91
2023-01-13T12:06:43.207Z,66.06
2023-01-13T12:09:20.668Z,66.49
2023-01-13T12:12:15.538Z,66.84
2023-01-13T12:14:55.074Z,67.58
2023-01-13T12:17:44.908Z,67.38
2023-01-13T12:20:35.429Z,68.31
2023-01-13T12:23:08.508Z,68.01
2023-01-13T12:25:41.959Z,68.74
2023-01-13T12:28:15.945Z,69.15
2023-01-13T12:30:51.945Z,69.08
2023-01-13T12:33:23.030Z,69.98
2023-01-13T12:35:59.655Z,69.99
2023-01-13T12:38:44.154Z,70.26
2023-01-13T12:41:20.431Z,70.49
2023-01-13T12:44:09.760Z,70.39
2023-01-13T12:46:48.794Z,70.64
2023-01-13T12:49:24.124Z,71.67
2023-01-13T12:51:54.806Z,71.13
2023-01-13T12:54:57.581Z,70.73
2023-01-13T12:57:29.001Z,70.82
2023-01-13T13:00:02.948Z,70.63
2023-01-13T13:02:37.967Z,71.02
2023-01-13T13:05:17.629Z,71.28
2023-01-13T13:07:55.259Z,71.36
2023-01-13T13:10:30.828Z,71.81
2023-01-13T13:13:19.955Z,71.82
2023-01-13T13:15:51.838Z,71.93
2023-01-13T13:18:28.877Z,72.19
2023-01-13T13:21:07.624Z,72.44
2023-01-13T13:23:56.564Z,72.78
2023-01-13T13:26:37.259Z,72.48
2023-01-13T13:29:16.942Z,72.74
2023-01-13T13:32:06.357Z,71.71
2023-01-13T13:34:36.848Z,72.04
2023-01-13T13:37:22.565Z,72.39
2023-01-13T13:40:11.147Z,72.83
2023-01-13T13:43:27.399Z,73.20
2023-01-13T13:46:16.004Z,73.18
2023-01-13T13:48:55.523Z,73.47
2023-01-13T13:51:40.092Z,72.83
2023-01-13T13:54:16.280Z,73.93
2023-01-13T13:56:48.297Z,73.70
2023-01-13T13:59:32.017Z,74.01
2023-01-13T14:02:05.136Z,72.59
2023-01-13T14:04:38.331Z,69.02
2023-01-13T14:07:22.794Z,66.28
2023-01-13T14:09:57.955Z,66.04
2023-01-13T14:12:29.274Z,65.48
2023-01-13T14:15:01.387Z,64.77
2023-01-13T14:17:32.791Z,63.95
2023-01-13T14:20:06.762Z,63.01
2023-01-13T14:22:37.557Z,61.90
2023-01-13T14:25:43.197Z,61.05
2023-01-13T14:28:13.876Z,61.34
2023-01-13T14:30:44.692Z,59.88
2023-01-13T14:33:20.058Z,59.33
2023-01-13T14:36:09.557Z,58.46
2023-01-13T14:38:40.363Z,57.49
2023-01-13T14:41:20.772Z,56.95
2023-01-13T14:43:53.044Z,57.90
2023-01-13T14:46:26.511Z,56.32
2023-01-13T14:49:04.197Z,55.19
2023-01-13T14:51:34.949Z,54.79
2023-01-13T14:54:05.724Z,54.11
2023-01-13T14:56:39.560Z,53.48
2023-01-13T14:59:28.432Z,53.13
2023-01-13T15:01:59.514Z,52.01
2023-01-13T15:04:38.207Z,52.07
2023-01-13T15:07:19.462Z,51.34
2023-01-13T15:09:54.795Z,50.36
2023-01-13T15:12:37.453Z,50.35
2023-01-13T15:15:22.804Z,49.97
2023-01-13T15:17:54.029Z,49.34
2023-01-13T15:20:26.361Z,52.93
2023-01-13T15:22:59.321Z,50.66
2023-01-13T15:25:37.041Z,50.59
2023-01-13T15:28:08.886Z,50.70
2023-01-13T15:30:39.494Z,50.78
2023-01-13T15:33:11.288Z,50.73
2023-01-13T15:35:44.146Z,50.27
2023-01-13T15:38:15.626Z,50.31
2023-01-13T15:40:46.452Z,50.78
2023-01-13T15:43:36.372Z,50.43
2023-01-13T15:46:29.930Z,50.05
2023-01-13T15:49:03.243Z,49.85
2023-01-13T15:51:33.742Z,50.65
2023-01-13T15:54:04.639Z,50.44
2023-01-13T15:56:37.600Z,50.72
2023-01-13T15:59:12.545Z,50.80
2023-01-13T16:01:43.229Z,50.82
2023-01-13T16:04:14.386Z,50.14
2023-01-13T16:06:45.198Z,50.49
2023-01-13T16:09:16.376Z,49.45
2023-01-13T16:11:46.962Z,49.32
2023-01-13T16:14:17.635Z,49.18
2023-01-13T16:16:48.376Z,49.89
2023-01-13T16:19:19.433Z,49.21
2023-01-13T16:21:50.346Z,49.56
2023-01-13T16:24:21.025Z,49.16
2023-01-13T16:26:52.306Z,48.63
2023-01-13T16:29:22.929Z,47.96
2023-01-13T16:31:53.462Z,47.52
2023-01-13T16:34:24.105Z,47.48
2023-01-13T16:36:55.404Z,47.61
2023-01-13T16:39:26.003Z,47.51
2023-01-13T16:41:57.918Z,47.06
2023-01-13T16:44:28.697Z,46.65
2023-01-13T16:46:59.573Z,46.10
2023-01-13T16:49:30.382Z,45.86
2023-01-13T16:52:01.452Z,45.90
2023-01-13T16:54:32.058Z,45.47
2023-01-13T16:57:02.755Z,45.64
2023-01-13T16:59:33.712Z,45.52
2023-01-13T17:02:06.360Z,45.51
2023-01-13T17:04:37.100Z,45.11
2023-01-13T17:07:11.632Z,44.82
2023-01-13T17:09:42.216Z,44.27
2023-01-13T17:12:13.118Z,44.08
2023-01-13T17:14:44.860Z,43.92
2023-01-13T17:17:25.510Z,43.95
2023-01-13T17:19:56.109Z,44.00
2023-01-13T17:22:27.313Z,43.85
2023-01-13T17:24:57.937Z,43.59
2023-01-13T17:27:28.496Z,43.74
2023-01-13T17:29:59.095Z,43.28
2023-01-13T17:32:29.727Z,43.26
2023-01-13T17:35:03.033Z,43.03
2023-01-13T17:37:34.122Z,43.18
2023-01-13T17:40:04.697Z,43.10
2023-01-13T17:42:35.297Z,43.12
2023-01-13T17:45:06.008Z,43.23
2023-01-13T17:47:36.614Z,43.80
2023-01-13T17:50:07.569Z,44.46
2023-01-13T17:52:38.107Z,44.49
2023-01-13T17:55:08.775Z,44.91
2023-01-13T17:57:39.268Z,45.05
2023-01-13T18:00:10.400Z,45.15
2023-01-13T18:02:43.784Z,45.24
2023-01-13T18:05:14.680Z,45.55
2023-01-13T18:07:45.571Z,45.85
2023-01-13T18:10:16.231Z,45.89
2023-01-13T18:12:46.790Z,45.54
2023-01-13T18:15:17.452Z,46.05
2023-01-13T18:17:48.499Z,46.02
2023-01-13T18:20:38.274Z,46.18
2023-01-13T18:23:28.558Z,46.16
2023-01-13T18:26:17.315Z,46.04
2023-01-13T18:28:48.456Z,46.41
2023-01-13T18:31:19.267Z,46.43
2023-01-13T18:33:50.224Z,46.24
2023-01-13T18:36:21.067Z,46.41
2023-01-13T18:38:52.182Z,46.64
2023-01-13T18:41:41.141Z,46.75
2023-01-13T18:44:11.695Z,46.39
2023-01-13T18:46:42.306Z,46.79
2023-01-13T18:49:12.797Z,46.43
2023-01-13T18:51:43.468Z,46.06
2023-01-13T18:54:14.180Z,46.33
2023-01-13T18:56:44.814Z,46.31
2023-01-13T18:59:19.093Z,46.48
2023-01-13T19:01:49.896Z,46.18
2023-01-13T19:04:21.189Z,46.43
2023-01-13T19:06:54.845Z,46.26
2023-01-13T19:09:30.151Z,46.36
2023-01-13T19:12:02.729Z,46.43
2023-01-13T19:14:36.155Z,46.37
2023-01-13T19:17:10.382Z,46.22
2023-01-13T19:19:48.038Z,46.52
2023-01-13T19:22:21.111Z,46.39
2023-01-13T19:24:52.264Z,46.39
2023-01-13T19:27:23.429Z,46.25
2023-01-13T19:29:55.190Z,46.39
2023-01-13T19:32:26.356Z,46.05
2023-01-13T19:35:00.539Z,46.05
2023-01-13T19:37:31.678Z,46.39
2023-01-13T19:40:02.421Z,45.99
2023-01-13T19:42:51.904Z,46.07
2023-01-13T19:45:28.644Z,46.07
2023-01-13T19:48:01.903Z,46.13
2023-01-13T19:50:33.082Z,45.93
2023-01-13T19:53:03.666Z,46.07
2023-01-13T19:55:34.438Z,46.18
2023-01-13T19:58:05.696Z,46.26
2023-01-13T20:00:36.605Z,46.15
2023-01-13T20:03:12.068Z,46.14
2023-01-13T20:05:42.891Z,46.34
2023-01-13T20:08:13.684Z,46.26
2023-01-13T20:10:46.179Z,46.52
2023-01-13T20:13:17.351Z,46.28
2023-01-13T20:15:47.925Z,46.07
2023-01-13T20:18:18.526Z,46.40
2023-01-13T20:20:49.755Z,46.07
2023-01-13T20:23:20.426Z,45.85
2023-01-13T20:25:50.922Z,45.97
2023-01-13T20:28:21.620Z,46.09
2023-01-13T20:30:52.378Z,46.04
2023-01-13T20:33:22.939Z,45.96
2023-01-13T20:36:00.248Z,46.28
2023-01-13T20:38:37.881Z,46.08
2023-01-13T20:41:27.633Z,46.13
2023-01-13T20:43:58.826Z,46.07
2023-01-13T20:46:29.480Z,45.83
2023-01-13T20:49:00.033Z,45.88
2023-01-13T20:51:30.537Z,45.54
2023-01-13T20:54:01.143Z,45.94
2023-01-13T20:56:31.752Z,45.90
2023-01-13T20:59:02.446Z,45.85
2023-01-13T21:01:33.607Z,45.85
2023-01-13T21:04:04.571Z,46.15
2023-01-13T21:06:35.800Z,46.19
2023-01-13T21:09:06.699Z,46.11
2023-01-13T21:11:55.301Z,45.98
2023-01-13T21:14:45.785Z,46.06
2023-01-13T21:17:35.154Z,46.11
2023-01-13T21:20:11.314Z,45.94
2023-01-13T21:22:45.764Z,46.08
2023-01-13T21:25:17.959Z,46.03
2023-01-13T21:27:49.220Z,46.02
2023-01-13T21:30:20.416Z,46.09
2023-01-13T21:32:51.011Z,46.01
2023-01-13T21:35:21.583Z,45.95
2023-01-13T21:37:52.444Z,45.74
2023-01-13T21:40:22.977Z,46.08
2023-01-13T21:43:11.604Z,46.18
2023-01-13T21:46:00.636Z,46.11
2023-01-13T21:48:31.556Z,46.01
2023-01-13T21:51:02.908Z,45.67
2023-01-13T21:53:33.528Z,46.02
2023-01-13T21:56:04.014Z,46.04
2023-01-13T21:58:34.964Z,46.10
2023-01-13T22:01:05.888Z,45.91
2023-01-13T22:03:55.001Z,46.20
2023-01-13T22:06:26.200Z,45.99
2023-01-13T22:09:03.052Z,46.18
2023-01-13T22:11:33.977Z,46.00
2023-01-13T22:14:08.215Z,46.34
2023-01-13T22:16:40.894Z,46.36
2023-01-13T22:19:12.418Z,46.50
2023-01-13T22:21:43.493Z,46.49
2023-01-13T22:24:14.199Z,46.27
2023-01-13T22:26:44.678Z,46.16
2023-01-13T22:29:15.412Z,46.08
2023-01-13T22:31:47.039Z,46.44
2023-01-13T22:34:17.809Z,46.48
2023-01-13T22:36:48.917Z,46.36
2023-01-13T22:39:19.759Z,46.01
2023-01-13T22:41:50.811Z,45.93
2023-01-13T22:44:22.282Z,46.12
2023-01-13T22:46:52.832Z,45.98
2023-01-13T22:49:24.592Z,46.04
2023-01-13T22:51:55.786Z,46.09
2023-01-13T22:54:26.506Z,45.90
2023-01-13T22:56:57.569Z,45.89
2023-01-13T22:59:28.478Z,45.49
2023-01-13T23:01:59.583Z,46.87
2023-01-13T23:04:30.191Z,47.68
2023-01-13T23:07:01.607Z,48.33
2023-01-13T23:09:32.649Z,49.29
2023-01-13T23:12:03.164Z,50.16
2023-01-13T23:14:33.799Z,50.98
2023-01-13T23:17:04.534Z,51.39
2023-01-13T23:19:35.325Z,51.99
2023-01-13T23:22:06.055Z,52.18
2023-01-13T23:24:36.630Z,52.02
2023-01-13T23:27:07.321Z,52.91
2023-01-13T23:29:38.160Z,52.93
2023-01-13T23:32:08.816Z,53.75
2023-01-13T23:34:39.317Z,53.84
2023-01-13T23:37:10.048Z,54.52
2023-01-13T23:39:40.964Z,54.81
2023-01-13T23:42:11.867Z,55.28
2023-01-13T23:44:42.825Z,55.96
2023-01-13T23:47:14.169Z,56.42
2023-01-13T23:49:44.704Z,57.12
2023-01-13T23:52:15.371Z,56.97
2023-01-13T23:54:46.102Z,57.26
2023-01-13T23:57:16.757Z,57.89
2023-01-13T23:59:47.458Z,57.76
